Terminal Aerodrome Forecast
Issued by NWS

Home | Current Version | Previous Version | Text Only | Print | Product List | Glossary On
Versions: 1 2 3 4 5 6 7 8 9 10 11 12 13 14 15 16 17 18 19 20 21 22 23 24 25 26 27 28 29 30 31 32 33 34
000
FTUS44 KFWD 181730
TAFFTW
TAF
KFTW 181730Z 1818/1918 18005KT P6SM BKN030
     FM190000 14008KT P6SM VCTS SCT040 BKN070CB
      TEMPO 1900/1903 5SM -TSRA BKN025CB
     FM190300 13005KT P6SM BKN120
     FM191500 21014KT P6SM BKN035=

USA.gov is the U.S. government's official web portal to all federal, state and local government web resources and services.